Time;durP1;ratioP1;P1;durP2;ratioP2;P2;SDS_P1;SDS_P2;PMS_P1;PMS_P2;Temp;Humidity;BMP_temperature;BMP_pressure;BME280_temperature;BME280_humidity;BME280_pressure;Samples;Min_cycle;Max_cycle;Signal;HPM_P1;HPM_P2
2022/03/24 00:02:02;;;;;;;13.67;9.43;;;8.70;65.50;;;;;;5078594;28;20412;-91
2022/03/24 00:04:28;;;;;;;18.15;9.52;;;8.70;65.30;;;;;;5078016;28;20617;-93
2022/03/24 00:06:53;;;;;;;20.57;12.50;;;8.80;65.30;;;;;;5060119;28;20197;-91
2022/03/24 00:09:19;;;;;;;20.73;11.00;;;8.80;67.20;;;;;;5063219;28;20262;-95
2022/03/24 00:11:46;;;;;;;21.10;12.87;;;8.80;66.60;;;;;;5080880;28;20173;-94
2022/03/24 00:14:12;;;;;;;28.17;12.00;;;8.70;66.80;;;;;;5068432;28;20169;-96
2022/03/24 00:16:38;;;;;;;16.67;11.60;;;8.70;66.70;;;;;;5047624;28;20774;-91
2022/03/24 00:19:03;;;;;;;18.63;11.53;;;8.60;67.20;;;;;;5039949;28;20235;-94
2022/03/24 00:21:29;;;;;;;20.03;12.23;;;8.50;67.70;;;;;;5038939;28;20213;-92
2022/03/24 00:23:55;;;;;;;19.03;11.63;;;8.40;67.60;;;;;;5039209;28;20225;-91
2022/03/24 00:26:21;;;;;;;15.83;10.97;;;8.40;67.60;;;;;;5042870;28;20782;-91
2022/03/24 00:28:46;;;;;;;19.43;10.77;;;8.30;68.00;;;;;;5039448;28;20212;-95
2022/03/24 00:31:12;;;;;;;19.47;12.00;;;8.30;67.70;;;;;;5040024;28;20170;-91
2022/03/24 00:33:38;;;;;;;18.73;9.90;;;8.30;67.60;;;;;;5040222;28;20300;-91
2022/03/24 00:36:05;;;;;;;14.97;9.97;;;8.20;66.80;;;;;;5056787;28;20197;-92
2022/03/24 00:38:31;;;;;;;14.98;10.25;;;8.20;66.10;;;;;;5039017;28;20210;-94
2022/03/24 00:40:57;;;;;;;22.85;11.02;;;8.30;66.60;;;;;;5041299;28;20177;-94
2022/03/24 00:43:24;;;;;;;16.50;10.80;;;8.30;66.80;;;;;;5040311;28;20217;-95
2022/03/24 00:45:51;;;;;;;14.90;9.30;;;8.30;67.10;;;;;;5056687;28;20227;-95
2022/03/24 00:48:17;;;;;;;24.35;10.05;;;8.30;66.40;;;;;;5039734;28;20210;-93
2022/03/24 00:50:44;;;;;;;23.15;10.93;;;8.30;66.40;;;;;;5040032;28;20245;-91
2022/03/24 00:53:11;;;;;;;15.73;11.40;;;8.30;66.90;;;;;;5056103;28;20745;-94
2022/03/24 00:55:39;;;;;;;13.85;10.77;;;8.30;67.80;;;;;;5041083;28;20654;-94
2022/03/24 00:58:05;;;;;;;12.68;10.05;;;8.30;68.10;;;;;;5038815;28;20221;-91
2022/03/24 01:00:32;;;;;;;16.20;10.27;;;8.20;68.10;;;;;;5038608;28;20181;-94
2022/03/24 01:02:58;;;;;;;15.73;10.18;;;8.20;68.10;;;;;;5038581;28;20218;-95
2022/03/24 01:05:28;;;;;;;21.88;11.57;;;8.10;68.30;;;;;;5038780;28;20517;-94
2022/03/24 01:07:55;;;;;;;14.65;11.18;;;8.10;68.80;;;;;;5041369;28;20209;-94
2022/03/24 01:10:22;;;;;;;19.55;11.93;;;8.10;68.80;;;;;;5038779;28;20184;-91
2022/03/24 01:12:49;;;;;;;16.38;12.45;;;8.00;69.10;;;;;;5038539;28;20286;-91
2022/03/24 01:15:18;;;;;;;15.93;10.75;;;7.90;69.00;;;;;;5038828;28;20182;-94
2022/03/24 01:17:44;;;;;;;21.63;11.93;;;7.80;69.30;;;;;;5056420;28;20673;-94
2022/03/24 01:20:11;;;;;;;18.73;11.30;;;7.80;69.60;;;;;;5038501;28;20173;-91
2022/03/24 01:22:38;;;;;;;17.40;10.68;;;7.70;69.90;;;;;;5039919;28;20217;-93
2022/03/24 01:25:06;;;;;;;21.08;11.43;;;7.60;70.00;;;;;;5045120;28;20170;-95
2022/03/24 01:27:32;;;;;;;21.80;11.35;;;7.60;69.80;;;;;;5041909;28;20205;-91
2022/03/24 01:29:59;;;;;;;21.08;11.55;;;7.50;69.80;;;;;;5057428;28;20170;-94
2022/03/24 01:32:28;;;;;;;20.48;11.38;;;7.50;70.30;;;;;;5038740;28;20702;-95
2022/03/24 01:34:55;;;;;;;14.38;10.45;;;7.40;70.60;;;;;;5040221;28;20181;-93
2022/03/24 01:37:23;;;;;;;17.70;11.52;;;7.40;70.70;;;;;;5039716;28;20267;-91
2022/03/24 01:39:48;;;;;;;14.82;9.88;;;7.30;70.70;;;;;;5038113;28;20203;-91
2022/03/24 01:42:16;;;;;;;17.40;11.30;;;7.30;70.90;;;;;;5038624;28;20194;-92
2022/03/24 01:44:46;;;;;;;17.42;11.65;;;7.30;70.60;;;;;;5038837;28;20415;-94
2022/03/24 01:47:13;;;;;;;19.55;12.30;;;7.20;70.40;;;;;;5049090;28;20198;-92
2022/03/24 01:49:44;;;;;;;17.23;11.75;;;7.30;70.40;;;;;;5067517;28;20162;-93
2022/03/24 01:52:12;;;;;;;17.80;11.15;;;7.20;70.30;;;;;;5040050;28;20194;-91
2022/03/24 01:54:40;;;;;;;16.50;11.50;;;7.20;70.00;;;;;;5039770;28;20173;-91
2022/03/24 01:57:09;;;;;;;19.52;11.68;;;7.20;70.50;;;;;;5061814;28;20186;-94
2022/03/24 01:59:37;;;;;;;15.75;9.90;;;7.20;70.60;;;;;;5043194;28;20182;-91
2022/03/24 02:02:06;;;;;;;21.77;10.40;;;7.20;69.10;;;;;;5040389;28;20201;-91
2022/03/24 02:04:35;;;;;;;19.63;11.70;;;7.10;69.60;;;;;;5052515;28;20185;-92
2022/03/24 02:07:01;;;;;;;18.42;12.07;;;7.20;69.40;;;;;;5048874;28;20635;-91
2022/03/24 02:09:27;;;;;;;19.48;11.98;;;7.20;68.80;;;;;;5061017;28;20303;-94
2022/03/24 02:11:54;;;;;;;19.90;11.30;;;7.20;69.80;;;;;;5042312;28;20225;-93
2022/03/24 02:14:19;;;;;;;18.38;12.45;;;7.20;70.10;;;;;;5042029;28;20523;-91
2022/03/24 02:16:48;;;;;;;17.53;11.30;;;7.20;70.20;;;;;;5055650;28;20693;-91
2022/03/24 02:19:21;;;;;;;22.80;12.65;;;7.10;69.80;;;;;;5061988;28;20548;-94
2022/03/24 02:21:48;;;;;;;17.75;11.60;;;7.10;68.40;;;;;;5062331;28;20180;-91
2022/03/24 02:24:15;;;;;;;17.00;11.93;;;7.20;68.50;;;;;;5061894;28;20216;-91
2022/03/24 02:26:43;;;;;;;19.90;12.13;;;7.20;67.80;;;;;;5079628;28;20248;-94
2022/03/24 02:29:11;;;;;;;16.88;12.32;;;7.30;68.40;;;;;;5063034;28;20189;-92
2022/03/24 02:31:39;;;;;;;17.98;11.80;;;7.30;69.00;;;;;;5062061;28;20646;-94
2022/03/24 02:36:51;;;;;;;17.77;11.68;;;7.40;69.30;;;;;;5079813;28;20164;-91
2022/03/24 02:39:17;;;;;;;17.50;12.00;;;7.40;69.90;;;;;;5066312;28;20185;-93
2022/03/24 02:41:54;;;;;;;17.00;11.50;;;7.30;69.40;;;;;;5081919;28;20223;-93
2022/03/24 02:44:23;;;;;;;24.55;12.55;;;7.30;69.50;;;;;;5067181;28;20469;-91
2022/03/24 02:46:50;;;;;;;21.08;13.27;;;7.30;69.50;;;;;;5080308;28;20173;-92
2022/03/24 02:49:18;;;;;;;18.00;12.48;;;7.40;69.00;;;;;;5080390;28;20182;-95
2022/03/24 02:51:44;;;;;;;21.42;13.40;;;7.30;68.90;;;;;;5062517;28;20204;-91
2022/03/24 02:54:10;;;;;;;20.20;12.40;;;7.40;69.40;;;;;;5061765;28;20657;-91
2022/03/24 02:56:42;;;;;;;17.75;12.70;;;7.40;69.30;;;;;;5063053;28;20601;-94
2022/03/24 02:59:08;;;;;;;22.15;12.70;;;7.40;68.60;;;;;;5062930;28;20190;-91
2022/03/24 03:01:34;;;;;;;19.75;12.55;;;7.40;68.80;;;;;;5072783;28;20231;-94
2022/03/24 03:04:00;;;;;;;18.73;12.60;;;7.40;69.70;;;;;;5060198;28;20280;-91
2022/03/24 03:06:26;;;;;;;17.83;12.38;;;7.40;69.80;;;;;;5078643;28;20177;-93
2022/03/24 03:08:52;;;;;;;14.60;12.20;;;7.40;69.80;;;;;;5060558;28;20236;-95
2022/03/24 03:11:22;;;;;;;16.92;12.68;;;7.30;69.80;;;;;;5062434;28;20207;-91
2022/03/24 03:13:48;;;;;;;17.52;12.02;;;7.30;69.90;;;;;;5060678;28;20201;-90
2022/03/24 03:16:14;;;;;;;17.10;12.20;;;7.30;69.10;;;;;;5050587;28;20270;-95
2022/03/24 03:18:43;;;;;;;15.77;12.30;;;7.30;68.20;;;;;;5042244;28;20622;-94
2022/03/24 03:21:09;;;;;;;18.73;12.07;;;7.40;68.60;;;;;;5041300;28;20591;-90
2022/03/24 03:23:39;;;;;;;20.00;11.60;;;7.40;68.30;;;;;;5040608;28;20790;-91
2022/03/24 03:26:05;;;;;;;20.73;11.25;;;7.50;68.20;;;;;;5042526;28;20178;-91
2022/03/24 03:28:31;;;;;;;20.90;11.98;;;7.50;69.00;;;;;;5041451;28;20210;-94
2022/03/24 03:30:57;;;;;;;18.25;11.15;;;7.50;69.50;;;;;;5040874;28;20205;-93
2022/03/24 03:33:23;;;;;;;19.47;11.47;;;7.50;69.10;;;;;;5041421;28;20217;-91
2022/03/24 03:35:49;;;;;;;21.80;11.63;;;7.50;69.20;;;;;;5041247;28;20177;-90
2022/03/24 03:38:15;;;;;;;19.20;11.20;;;7.40;69.30;;;;;;5040871;28;20425;-91
2022/03/24 03:40:40;;;;;;;21.00;11.43;;;7.40;68.40;;;;;;5060587;28;20395;-93
2022/03/24 03:43:06;;;;;;;19.50;11.83;;;7.50;68.00;;;;;;5045067;28;20486;-91
2022/03/24 03:45:32;;;;;;;14.27;10.80;;;7.50;68.30;;;;;;5057603;28;20197;-90
2022/03/24 03:47:57;;;;;;;18.43;11.87;;;7.50;67.80;;;;;;5040180;28;20202;-94
2022/03/24 03:50:25;;;;;;;14.37;10.47;;;7.60;68.10;;;;;;5040549;28;20170;-94
2022/03/24 03:52:51;;;;;;;14.68;11.27;;;7.60;68.70;;;;;;5039602;28;20451;-92
2022/03/24 03:55:17;;;;;;;17.60;12.27;;;7.60;68.60;;;;;;5042790;28;20201;-91
2022/03/24 03:57:43;;;;;;;20.00;11.67;;;7.60;68.20;;;;;;5059366;28;20197;-91
2022/03/24 04:02:53;;;;;;;17.52;12.48;;;7.70;68.80;;;;;;5057864;28;21136;-95
2022/03/24 04:05:25;;;;;;;21.90;12.77;;;7.70;69.00;;;;;;5057306;28;20220;-91
2022/03/24 04:07:51;;;;;;;23.88;12.40;;;7.70;69.10;;;;;;5039302;28;20201;-94
2022/03/24 04:10:17;;;;;;;19.52;13.68;;;7.60;69.30;;;;;;5041545;28;20188;-93
2022/03/24 04:12:43;;;;;;;15.70;11.55;;;7.60;69.50;;;;;;5057537;28;20706;-90
2022/03/24 04:15:12;;;;;;;25.23;13.20;;;7.60;69.00;;;;;;5058122;28;20226;-91
2022/03/24 04:17:38;;;;;;;17.88;11.45;;;7.60;69.30;;;;;;5077121;28;20600;-91
2022/03/24 04:20:07;;;;;;;20.00;12.07;;;7.60;68.80;;;;;;5059037;28;20183;-94
2022/03/24 04:22:32;;;;;;;21.73;12.80;;;7.60;68.90;;;;;;5077009;28;20455;-95
2022/03/24 04:24:58;;;;;;;16.20;11.60;;;7.60;68.80;;;;;;5078180;28;20177;-94
2022/03/24 04:27:24;;;;;;;18.23;11.50;;;7.60;69.70;;;;;;5077233;28;20492;-94
2022/03/24 04:29:50;;;;;;;20.63;12.60;;;7.50;69.60;;;;;;5059646;28;20418;-93
2022/03/24 04:32:16;;;;;;;18.20;11.87;;;7.50;69.50;;;;;;5076694;28;20621;-94
2022/03/24 04:34:42;;;;;;;19.80;12.70;;;7.50;68.80;;;;;;5076930;28;20402;-94
2022/03/24 04:37:08;;;;;;;20.13;13.33;;;7.50;68.70;;;;;;5059385;28;20434;-92
2022/03/24 04:39:33;;;;;;;13.80;10.90;;;7.60;69.00;;;;;;5062398;28;20207;-93
2022/03/24 04:41:59;;;;;;;20.23;13.47;;;7.60;69.40;;;;;;5058838;28;20566;-94
2022/03/24 04:44:25;;;;;;;19.10;13.93;;;7.60;69.30;;;;;;5059328;28;20473;-91
2022/03/24 04:46:52;;;;;;;18.30;12.47;;;7.60;69.10;;;;;;5059944;28;20177;-95
2022/03/24 04:49:18;;;;;;;17.92;13.70;;;7.60;68.90;;;;;;5077981;28;20176;-91
2022/03/24 04:51:44;;;;;;;20.03;11.70;;;7.70;68.90;;;;;;5060788;28;20177;-95
2022/03/24 04:54:10;;;;;;;23.08;14.13;;;7.70;68.80;;;;;;5059131;28;20400;-91
2022/03/24 04:56:36;;;;;;;17.20;12.70;;;7.70;69.30;;;;;;5059481;28;20177;-91
2022/03/24 04:59:02;;;;;;;19.93;12.47;;;7.70;68.80;;;;;;5065278;28;20414;-95
2022/03/24 05:01:27;;;;;;;23.77;14.00;;;7.80;69.10;;;;;;5050103;28;20239;-90
2022/03/24 05:03:53;;;;;;;23.70;13.70;;;7.80;69.90;;;;;;5056272;28;20237;-93
2022/03/24 05:06:19;;;;;;;19.83;13.90;;;7.80;70.00;;;;;;5040268;28;20207;-92
2022/03/24 05:08:45;;;;;;;21.97;13.70;;;7.80;70.30;;;;;;5062917;28;20186;-94
2022/03/24 05:11:10;;;;;;;20.07;13.17;;;7.80;70.10;;;;;;5064202;28;20178;-90
2022/03/24 05:13:36;;;;;;;22.80;13.77;;;7.90;69.30;;;;;;5037263;28;20473;-95
2022/03/24 05:16:02;;;;;;;28.00;16.47;;;7.90;69.70;;;;;;5063319;28;20225;-95
2022/03/24 05:18:28;;;;;;;25.70;16.83;;;8.00;68.70;;;;;;5057763;28;20922;-94
2022/03/24 05:20:54;;;;;;;34.90;17.25;;;8.00;69.00;;;;;;5059859;28;20181;-91
2022/03/24 05:23:20;;;;;;;22.58;15.10;;;8.10;69.70;;;;;;5057170;28;20225;-94
2022/03/24 05:25:48;;;;;;;28.50;17.90;;;8.10;69.30;;;;;;5058657;28;20646;-89
2022/03/24 05:28:15;;;;;;;25.52;15.65;;;8.20;68.80;;;;;;5058361;28;20197;-92
2022/03/24 05:30:42;;;;;;;24.27;15.07;;;8.20;68.70;;;;;;5057843;28;20169;-94
2022/03/24 05:33:08;;;;;;;23.00;14.98;;;8.30;68.30;;;;;;5054276;28;20205;-91
2022/03/24 05:35:35;;;;;;;24.80;14.90;;;8.30;68.20;;;;;;5072941;28;20180;-94
2022/03/24 05:38:05;;;;;;;24.30;14.52;;;8.40;68.10;;;;;;5047393;28;20202;-90
2022/03/24 05:40:32;;;;;;;22.63;15.38;;;8.50;68.10;;;;;;5050838;28;20200;-91
2022/03/24 05:42:58;;;;;;;22.33;14.45;;;8.50;68.10;;;;;;5055697;28;20622;-91
2022/03/24 05:45:24;;;;;;;22.03;14.50;;;8.60;68.20;;;;;;5075358;28;20172;-91
2022/03/24 05:47:50;;;;;;;21.77;12.83;;;8.60;68.20;;;;;;5057105;28;20208;-95
2022/03/24 05:50:17;;;;;;;23.73;14.53;;;8.70;68.30;;;;;;5038979;28;20174;-93
2022/03/24 05:52:43;;;;;;;24.35;14.02;;;8.80;68.30;;;;;;5045990;28;20208;-91
2022/03/24 05:55:09;;;;;;;23.35;13.32;;;8.90;68.50;;;;;;5040333;28;20173;-91
2022/03/24 05:57:35;;;;;;;22.92;13.73;;;9.00;68.40;;;;;;5057162;28;20215;-92
2022/03/24 06:00:03;;;;;;;22.27;14.60;;;9.10;68.50;;;;;;5067487;28;20173;-94
2022/03/24 06:02:29;;;;;;;21.27;13.38;;;9.20;68.60;;;;;;5058743;28;20185;-90
2022/03/24 06:04:55;;;;;;;19.87;13.53;;;9.30;68.50;;;;;;5057436;28;20268;-93
2022/03/24 06:07:21;;;;;;;22.42;14.27;;;9.40;68.40;;;;;;5076267;28;20197;-95
2022/03/24 06:09:48;;;;;;;17.47;13.73;;;9.50;68.30;;;;;;5075180;28;20586;-93
2022/03/24 06:12:14;;;;;;;19.73;13.02;;;9.70;68.30;;;;;;5076605;28;20957;-91
2022/03/24 06:14:40;;;;;;;22.30;13.95;;;9.80;68.10;;;;;;5046856;28;20665;-91
2022/03/24 06:17:07;;;;;;;23.30;13.97;;;9.90;68.00;;;;;;5054169;28;20236;-94
2022/03/24 06:19:36;;;;;;;18.02;13.10;;;10.10;67.80;;;;;;5063290;28;20260;-94
2022/03/24 06:22:03;;;;;;;22.58;13.20;;;10.20;67.50;;;;;;5061335;28;20195;-95
2022/03/24 06:24:32;;;;;;;19.40;13.05;;;10.30;67.30;;;;;;5057339;28;20255;-93
2022/03/24 06:26:59;;;;;;;20.25;12.98;;;10.40;66.90;;;;;;5054338;28;20244;-95
2022/03/24 06:29:24;;;;;;;17.73;12.73;;;10.60;66.80;;;;;;5056768;28;20185;-91
2022/03/24 06:31:50;;;;;;;19.33;15.23;;;10.70;66.40;;;;;;5055796;28;20322;-90
2022/03/24 06:34:16;;;;;;;24.33;14.30;;;10.80;66.30;;;;;;5050143;28;20415;-94
2022/03/24 06:36:45;;;;;;;18.05;13.45;;;11.00;65.90;;;;;;5057517;28;20200;-95
2022/03/24 06:39:11;;;;;;;19.08;13.45;;;11.10;65.80;;;;;;5042887;28;20249;-92
2022/03/24 06:41:37;;;;;;;19.07;13.83;;;11.20;65.50;;;;;;5058826;28;20196;-96
2022/03/24 06:44:06;;;;;;;22.67;13.87;;;11.40;65.50;;;;;;5056935;28;20470;-94
2022/03/24 06:46:35;;;;;;;17.30;13.05;;;11.50;65.30;;;;;;5054146;28;20181;-96
2022/03/24 06:49:11;;;;;;;21.77;13.45;;;11.60;64.90;;;;;;5042618;28;20178;-96
2022/03/24 06:51:36;;;;;;;19.95;14.25;;;11.80;64.50;;;;;;5063216;28;20183;-90
2022/03/24 06:54:03;;;;;;;20.53;15.53;;;11.90;65.10;;;;;;5045566;28;20181;-92
2022/03/24 06:56:31;;;;;;;20.10;14.30;;;12.00;64.50;;;;;;5041247;28;20216;-92
2022/03/24 06:58:57;;;;;;;23.92;12.85;;;12.20;64.60;;;;;;5046221;28;20202;-89
2022/03/24 07:01:23;;;;;;;18.63;14.67;;;12.30;64.70;;;;;;5060025;28;20185;-86
2022/03/24 07:03:49;;;;;;;26.07;13.20;;;12.50;64.00;;;;;;5051235;28;20221;-93
2022/03/24 07:06:15;;;;;;;16.77;12.43;;;12.60;62.90;;;;;;5072648;28;20178;-93
2022/03/24 07:08:40;;;;;;;16.57;12.60;;;12.80;62.70;;;;;;5049485;28;20544;-94
2022/03/24 07:11:06;;;;;;;16.53;12.60;;;13.00;62.70;;;;;;5048893;28;20434;-93
2022/03/24 07:13:32;;;;;;;18.03;13.53;;;13.10;62.30;;;;;;5067547;28;20481;-90
2022/03/24 07:15:58;;;;;;;20.20;13.37;;;13.30;62.30;;;;;;5067605;28;20462;-90
2022/03/24 07:18:24;;;;;;;19.33;13.57;;;13.40;61.80;;;;;;5050447;28;20205;-91
2022/03/24 07:20:50;;;;;;;18.83;12.77;;;13.60;62.00;;;;;;5053787;28;20968;-94
2022/03/24 07:23:16;;;;;;;18.00;13.00;;;13.80;61.80;;;;;;5046562;28;20487;-90
2022/03/24 07:25:42;;;;;;;15.57;11.87;;;14.00;61.60;;;;;;5074844;28;20395;-90
2022/03/24 07:28:13;;;;;;;20.23;12.80;;;14.10;61.60;;;;;;5069665;28;20433;-94
2022/03/24 07:30:39;;;;;;;18.37;12.90;;;14.30;61.30;;;;;;5058537;28;20422;-91
2022/03/24 07:33:05;;;;;;;18.40;13.30;;;14.50;60.90;;;;;;5068097;28;20458;-90
2022/03/24 07:35:33;;;;;;;15.67;12.30;;;14.70;60.40;;;;;;5058705;28;20509;-90
2022/03/24 07:38:00;;;;;;;18.00;12.80;;;14.80;60.00;;;;;;5069148;28;20450;-94
2022/03/24 07:40:26;;;;;;;17.60;12.37;;;15.10;60.00;;;;;;5055137;28;20488;-94
2022/03/24 07:42:54;;;;;;;18.53;13.70;;;15.20;59.30;;;;;;5077957;28;20536;-93
2022/03/24 07:45:22;;;;;;;16.53;11.83;;;15.40;59.10;;;;;;5060244;28;20434;-95
2022/03/24 07:48:25;;;;;;;16.37;11.97;;;15.60;58.50;;;;;;5054509;28;20458;-92
2022/03/24 07:50:52;;;;;;;14.50;11.30;;;15.80;58.50;;;;;;5044501;28;20427;-91
2022/03/24 07:53:37;;;;;;;15.70;11.50;;;16.00;58.20;;;;;;5068981;28;20446;-91
2022/03/24 07:56:03;;;;;;;12.37;11.00;;;16.30;58.90;;;;;;5045563;28;20419;-91
2022/03/24 07:58:30;;;;;;;11.93;10.43;;;16.50;58.00;;;;;;5073123;28;20788;-91
2022/03/24 08:00:57;;;;;;;14.93;11.70;;;16.60;57.90;;;;;;5048262;28;20422;-91
2022/03/24 08:03:23;;;;;;;13.37;10.50;;;16.80;57.10;;;;;;5051918;28;20552;-91
2022/03/24 08:05:50;;;;;;;13.90;10.77;;;17.00;56.70;;;;;;5074498;28;20411;-92
2022/03/24 08:08:17;;;;;;;11.87;10.60;;;17.10;56.10;;;;;;5064757;28;20466;-91
2022/03/24 08:10:45;;;;;;;19.20;9.90;;;17.30;56.40;;;;;;5078006;28;21499;-95
2022/03/24 08:13:15;;;;;;;13.60;9.83;;;17.40;56.10;;;;;;5063353;28;20476;-92
2022/03/24 08:15:45;;;;;;;13.53;10.87;;;17.60;55.40;;;;;;5058671;28;20408;-95
2022/03/24 08:18:12;;;;;;;15.60;10.57;;;17.80;56.30;;;;;;5056416;28;20450;-95
2022/03/24 08:20:39;;;;;;;12.80;11.10;;;17.90;54.80;;;;;;5040327;28;20418;-94
2022/03/24 08:23:10;;;;;;;14.90;11.77;;;18.10;55.20;;;;;;5056766;28;20475;-95
2022/03/24 08:25:38;;;;;;;15.57;13.40;;;18.20;54.90;;;;;;5056312;28;20457;-92
2022/03/24 08:28:04;;;;;;;13.47;10.50;;;18.40;54.60;;;;;;5059996;28;20455;-95
2022/03/24 08:30:30;;;;;;;17.87;11.40;;;18.70;55.50;;;;;;5059555;28;20432;-94
2022/03/24 08:32:57;;;;;;;14.23;10.17;;;19.20;54.80;;;;;;5051106;28;20512;-94
2022/03/24 08:35:27;;;;;;;20.97;11.67;;;19.80;53.10;;;;;;5043024;28;20933;-95
2022/03/24 08:37:54;;;;;;;11.43;10.17;;;20.60;53.20;;;;;;5078279;28;20972;-91
2022/03/24 08:40:20;;;;;;;19.33;12.03;;;21.30;53.10;;;;;;5058438;28;20430;-91
2022/03/24 08:42:46;;;;;;;14.13;11.20;;;22.10;51.70;;;;;;5051360;28;20474;-91
2022/03/24 08:45:14;;;;;;;11.03;10.00;;;23.00;49.00;;;;;;5041230;28;20195;-93
2022/03/24 08:47:40;;;;;;;10.77;9.67;;;23.70;50.00;;;;;;5050482;28;20536;-92
2022/03/24 08:50:08;;;;;;;10.47;9.33;;;24.30;49.40;;;;;;5060553;28;20425;-94
2022/03/24 08:52:35;;;;;;;11.47;8.97;;;24.80;49.00;;;;;;5043631;28;20546;-92
2022/03/24 08:55:02;;;;;;;13.80;10.73;;;25.40;49.00;;;;;;5055799;28;20403;-93
2022/03/24 08:57:28;;;;;;;14.37;10.10;;;26.00;47.60;;;;;;5054917;28;20885;-91
2022/03/24 08:59:55;;;;;;;12.33;9.40;;;26.70;47.40;;;;;;5053986;28;20470;-94
2022/03/24 09:02:21;;;;;;;11.37;10.10;;;27.20;46.60;;;;;;5055196;28;20281;-91
2022/03/24 09:04:50;;;;;;;11.83;10.00;;;27.80;44.40;;;;;;5056283;28;20456;-92
2022/03/24 09:07:18;;;;;;;14.80;9.67;;;28.20;44.70;;;;;;5056797;28;20462;-94
2022/03/24 09:09:47;;;;;;;11.20;9.93;;;28.30;43.80;;;;;;5061231;28;20426;-94
2022/03/24 09:12:13;;;;;;;11.70;10.03;;;28.40;43.80;;;;;;5054441;28;20440;-95
2022/03/24 09:14:40;;;;;;;13.90;10.20;;;28.30;43.90;;;;;;5055794;28;20426;-92
2022/03/24 09:17:08;;;;;;;11.93;9.90;;;28.20;42.90;;;;;;5049267;28;20469;-94
2022/03/24 09:19:35;;;;;;;12.77;9.73;;;28.20;42.90;;;;;;5064599;28;20398;-92
2022/03/24 09:22:06;;;;;;;12.53;10.80;;;28.10;44.60;;;;;;5060664;28;20456;-95
2022/03/24 09:24:33;;;;;;;11.60;10.40;;;27.90;44.20;;;;;;5043631;28;20468;-92
2022/03/24 09:26:59;;;;;;;10.63;9.67;;;27.60;44.90;;;;;;5051992;28;20981;-94
2022/03/24 09:29:25;;;;;;;10.40;9.00;;;27.30;46.00;;;;;;5059045;28;20421;-91
2022/03/24 09:31:51;;;;;;;12.60;9.47;;;27.30;43.00;;;;;;5052113;28;20804;-92
2022/03/24 09:34:20;;;;;;;11.20;10.00;;;27.30;42.60;;;;;;5059109;28;20580;-95
2022/03/24 09:36:46;;;;;;;10.37;9.27;;;27.30;42.60;;;;;;5056846;28;20448;-94
2022/03/24 09:39:12;;;;;;;12.20;10.03;;;27.40;42.60;;;;;;5047881;28;20814;-95
2022/03/24 09:41:41;;;;;;;10.20;9.20;;;27.40;43.10;;;;;;5042667;28;20413;-95
2022/03/24 09:44:07;;;;;;;13.23;9.30;;;27.50;43.30;;;;;;5063934;28;20216;-94
2022/03/24 09:46:36;;;;;;;12.47;10.00;;;27.60;44.40;;;;;;5060602;28;20466;-94
2022/03/24 09:49:02;;;;;;;13.50;10.20;;;27.60;44.00;;;;;;5057504;28;20434;-95
2022/03/24 09:51:29;;;;;;;11.07;9.90;;;27.70;43.70;;;;;;5061997;28;20951;-94
2022/03/24 09:53:55;;;;;;;14.20;9.93;;;27.80;43.10;;;;;;5051215;28;20452;-92
2022/03/24 09:56:20;;;;;;;12.40;10.13;;;27.80;43.00;;;;;;5072656;28;20441;-92
2022/03/24 09:58:50;;;;;;;11.53;10.43;;;27.70;44.00;;;;;;5051299;28;20805;-94
2022/03/24 10:01:17;;;;;;;10.80;9.40;;;27.90;42.70;;;;;;5052228;28;20189;-91
2022/03/24 10:04:06;;;;;;;14.27;9.70;;;28.00;42.10;;;;;;5049378;28;20523;-94
2022/03/24 10:06:34;;;;;;;11.67;9.93;;;28.00;44.60;;;;;;5066970;28;20427;-95
2022/03/24 10:09:00;;;;;;;11.13;9.73;;;28.00;44.20;;;;;;5056876;28;20437;-95
2022/03/24 10:11:28;;;;;;;10.60;9.50;;;28.00;44.70;;;;;;5051298;28;20476;-94
2022/03/24 10:13:57;;;;;;;19.63;10.70;;;28.00;43.30;;;;;;5067404;28;20232;-91
2022/03/24 10:16:39;;;;;;;10.70;9.63;;;27.90;44.30;;;;;;5043602;28;20463;-92
2022/03/24 10:19:16;;;;;;;11.37;10.17;;;27.50;44.10;;;;;;5057755;28;20969;-92
2022/03/24 10:21:45;;;;;;;13.40;9.80;;;27.10;43.90;;;;;;5079162;28;20457;-92
2022/03/24 10:24:20;;;;;;;10.03;9.03;;;26.70;44.90;;;;;;5055010;28;20483;-92
2022/03/24 10:27:03;;;;;;;12.57;11.47;;;26.30;46.00;;;;;;5080067;28;20424;-92
2022/03/24 10:29:31;;;;;;;13.50;10.03;;;26.00;45.90;;;;;;5068465;28;20449;-92
2022/03/24 10:31:58;;;;;;;10.80;9.60;;;25.50;47.00;;;;;;5057057;28;20505;-94
2022/03/24 10:34:33;;;;;;;11.37;10.13;;;25.40;46.60;;;;;;5057460;28;20451;-92
2022/03/24 10:37:05;;;;;;;11.97;9.80;;;25.20;46.50;;;;;;5076788;28;20489;-92
2022/03/24 10:39:32;;;;;;;16.37;9.80;;;25.00;47.80;;;;;;5073886;28;20420;-92
2022/03/24 10:42:32;;;;;;;10.10;9.20;;;24.80;47.00;;;;;;5067196;28;20500;-94
2022/03/24 10:45:17;;;;;;;11.53;9.93;;;24.60;48.40;;;;;;5016365;28;20859;-91
2022/03/24 10:47:51;;;;;;;11.10;10.00;;;24.50;48.10;;;;;;5055508;28;20453;-95
2022/03/24 10:50:28;;;;;;;13.53;10.47;;;24.40;47.90;;;;;;5056675;28;20438;-91
2022/03/24 10:52:57;;;;;;;12.53;10.93;;;24.40;45.10;;;;;;5071596;28;20529;-93
2022/03/24 10:55:52;;;;;;;10.63;9.63;;;24.30;46.60;;;;;;5051665;28;20440;-92
2022/03/24 10:58:23;;;;;;;12.50;11.20;;;24.10;49.00;;;;;;5052150;28;20845;-95
2022/03/24 11:00:52;;;;;;;10.33;9.30;;;24.00;48.40;;;;;;5055718;28;21054;-94
2022/03/24 11:03:19;;;;;;;10.17;9.13;;;23.70;48.50;;;;;;5062688;28;20469;-92
2022/03/24 11:05:45;;;;;;;10.83;9.73;;;23.60;49.80;;;;;;5071898;28;20445;-92
2022/03/24 11:08:17;;;;;;;11.43;10.07;;;23.50;49.80;;;;;;5064011;28;20433;-94
2022/03/24 11:10:45;;;;;;;12.00;10.17;;;23.40;48.60;;;;;;5087567;28;20223;-95
2022/03/24 11:13:13;;;;;;;11.27;10.17;;;23.40;47.50;;;;;;5070964;28;20441;-94
2022/03/24 11:15:41;;;;;;;12.17;9.70;;;23.40;47.30;;;;;;5058582;28;20435;-95
2022/03/24 11:18:07;;;;;;;11.13;10.10;;;23.50;46.80;;;;;;5054927;28;21011;-92
2022/03/24 11:20:38;;;;;;;12.50;11.20;;;23.40;48.30;;;;;;5062803;28;20798;-92
2022/03/24 11:23:24;;;;;;;12.70;10.40;;;23.30;49.10;;;;;;5071150;28;20550;-91
2022/03/24 11:25:53;;;;;;;11.10;9.70;;;23.30;48.10;;;;;;5055089;28;20458;-91
2022/03/24 11:28:21;;;;;;;11.00;9.80;;;23.20;49.20;;;;;;5053324;28;20978;-95
2022/03/24 11:30:47;;;;;;;11.50;9.93;;;23.30;48.90;;;;;;5058313;28;20555;-92
2022/03/24 11:33:13;;;;;;;20.40;14.70;;;23.40;47.40;;;;;;5051151;28;20445;-93
2022/03/24 11:35:42;;;;;;;10.90;9.67;;;23.50;46.70;;;;;;5039077;28;20864;-92
2022/03/24 11:38:08;;;;;;;11.63;10.10;;;23.70;45.70;;;;;;5065831;28;20815;-92
2022/03/24 11:40:34;;;;;;;10.93;9.70;;;23.70;47.40;;;;;;5065799;28;20426;-94
2022/03/24 11:43:04;;;;;;;13.93;10.20;;;23.70;48.00;;;;;;5048360;28;20248;-94
2022/03/24 11:45:49;;;;;;;11.53;9.00;;;23.80;46.80;;;;;;5054627;28;20463;-93
2022/03/24 11:48:30;;;;;;;11.30;10.20;;;23.90;47.30;;;;;;5048515;28;20475;-95
2022/03/24 11:50:56;;;;;;;10.50;9.30;;;24.00;47.30;;;;;;5072820;28;20532;-94
2022/03/24 11:53:25;;;;;;;11.07;9.20;;;24.00;47.50;;;;;;5051404;28;20881;-94
2022/03/24 11:56:01;;;;;;;10.03;8.60;;;24.10;46.80;;;;;;5056860;28;20457;-94
2022/03/24 11:58:52;;;;;;;9.83;8.93;;;24.00;48.60;;;;;;5049360;28;20500;-94
2022/03/24 12:01:19;;;;;;;10.33;9.23;;;23.80;49.40;;;;;;5071632;28;20436;-95
2022/03/24 12:03:58;;;;;;;10.57;9.10;;;23.80;48.20;;;;;;5067560;28;20733;-91
2022/03/24 12:06:46;;;;;;;11.77;10.57;;;23.70;50.20;;;;;;5068909;28;20463;-95
2022/03/24 12:09:25;;;;;;;10.43;9.10;;;23.80;45.00;;;;;;5050574;28;20424;-91
2022/03/24 12:12:13;;;;;;;11.30;9.20;;;24.00;44.90;;;;;;5041930;28;20768;-92
2022/03/24 12:14:45;;;;;;;10.57;9.50;;;24.00;44.60;;;;;;5066550;28;20783;-91
2022/03/24 12:17:21;;;;;;;9.80;8.90;;;24.10;44.40;;;;;;5042546;28;20500;-95
2022/03/24 12:19:54;;;;;;;9.93;9.03;;;24.20;43.90;;;;;;5052727;28;20468;-95
2022/03/24 12:22:26;;;;;;;10.93;9.87;;;24.20;43.70;;;;;;5048565;28;20529;-93
2022/03/24 12:24:53;;;;;;;9.30;8.50;;;24.20;44.50;;;;;;5052016;28;20565;-91
2022/03/24 12:27:19;;;;;;;8.57;7.70;;;24.30;44.10;;;;;;5048489;28;20551;-91
2022/03/24 12:30:10;;;;;;;11.57;10.40;;;24.40;44.30;;;;;;5057194;28;20512;-92
2022/03/24 12:32:36;;;;;;;9.70;8.63;;;24.50;44.40;;;;;;5044482;28;20483;-92
2022/03/24 12:35:03;;;;;;;9.37;8.33;;;24.50;44.30;;;;;;5069149;28;20889;-92
2022/03/24 12:37:35;;;;;;;9.10;8.17;;;24.60;43.50;;;;;;5049202;28;20533;-92
2022/03/24 12:40:09;;;;;;;15.90;7.90;;;24.60;43.10;;;;;;5039008;28;20464;-92
2022/03/24 12:42:42;;;;;;;12.07;7.30;;;24.50;42.30;;;;;;5048295;28;20507;-92
2022/03/24 12:45:11;;;;;;;8.60;7.37;;;24.50;41.80;;;;;;5078147;28;20439;-94